Terminal Aerodrome Forecast
Issued by NWS

Home | Current Version | Previous Version | Text Only | Print | Product List | Glossary On
Versions: 1 2 3 4 5 6 7 8 9 10 11 12 13 14 15 16 17 18 19 20
000
FTUS41 KILN 010900 AAC
TAFLUK
TAF AMD
KLUK 010916Z 0109/0206 20003KT P6SM BKN014
     FM011100 21003KT P6SM VCSH OVC012
     FM011400 21005KT 5SM BR BKN015
     FM011500 21009KT P6SM BKN022
     FM011700 21012G20KT P6SM SCT040
     FM020400 20005KT P6SM VCSH BKN040=

USA.gov is the U.S. government's official web portal to all federal, state and local government web resources and services.